createdAt,value
2023-02-14T00:01:11.584Z,23.47
2023-02-14T00:03:40.392Z,25.43
2023-02-14T00:06:09.546Z,25.30
2023-02-14T00:08:36.720Z,23.83
2023-02-14T00:11:05.265Z,23.13
2023-02-14T00:13:32.223Z,24.20
2023-02-14T00:15:59.144Z,26.17
2023-02-14T00:18:46.484Z,24.13
2023-02-14T00:21:15.338Z,24.33
2023-02-14T00:23:42.308Z,24.20
2023-02-14T00:26:14.854Z,22.73
2023-02-14T00:28:42.022Z,22.27
2023-02-14T00:31:09.535Z,22.43
2023-02-14T00:33:37.743Z,21.63
2023-02-14T00:36:06.926Z,20.57
2023-02-14T00:38:35.241Z,20.23
2023-02-14T00:41:02.666Z,20.40
2023-02-14T00:43:29.854Z,19.27
2023-02-14T00:45:57.505Z,20.43
2023-02-14T00:48:24.605Z,18.77
2023-02-14T00:50:51.534Z,19.27
2023-02-14T00:53:18.442Z,18.70
2023-02-14T00:55:49.303Z,17.73
2023-02-14T00:58:16.151Z,16.83
2023-02-14T01:00:43.023Z,18.00
2023-02-14T01:03:10.252Z,16.03
2023-02-14T01:05:37.302Z,16.07
2023-02-14T01:08:04.862Z,15.43
2023-02-14T01:10:31.743Z,15.33
2023-02-14T01:12:59.961Z,15.33
2023-02-14T01:15:26.890Z,15.37
2023-02-14T01:17:53.830Z,14.53
2023-02-14T01:20:20.893Z,14.70
2023-02-14T01:22:47.773Z,15.10
2023-02-14T01:25:14.895Z,15.23
2023-02-14T01:27:41.985Z,15.17
2023-02-14T01:30:12.731Z,14.40
2023-02-14T01:32:39.654Z,14.40
2023-02-14T01:35:07.136Z,15.40
2023-02-14T01:37:34.025Z,15.17
2023-02-14T01:40:02.330Z,14.50
2023-02-14T01:42:29.425Z,14.57
2023-02-14T01:45:02.302Z,14.90
2023-02-14T01:47:36.994Z,14.00
2023-02-14T01:50:10.137Z,15.23
2023-02-14T01:52:44.390Z,15.20
2023-02-14T01:55:19.160Z,14.20
2023-02-14T01:57:52.221Z,14.63
2023-02-14T02:00:39.598Z,15.53
2023-02-14T02:03:09.378Z,15.20
2023-02-14T02:05:40.836Z,14.10
2023-02-14T02:08:08.385Z,16.07
2023-02-14T02:10:35.245Z,14.67
2023-02-14T02:13:07.280Z,15.30
2023-02-14T02:15:46.171Z,15.33
2023-02-14T02:18:26.629Z,15.43
2023-02-14T02:21:38.754Z,16.83
2023-02-14T02:24:33.643Z,15.90
2023-02-14T02:27:31.431Z,15.70
2023-02-14T02:30:34.724Z,15.00
2023-02-14T02:33:50.798Z,16.40
2023-02-14T02:36:49.462Z,17.17
2023-02-14T02:39:34.460Z,16.10
2023-02-14T02:42:10.503Z,15.90
2023-02-14T02:44:51.982Z,17.87
2023-02-14T02:47:32.726Z,16.80
2023-02-14T02:50:30.588Z,17.30
2023-02-14T02:53:13.255Z,16.10
2023-02-14T02:56:03.323Z,17.07
2023-02-14T02:58:36.786Z,17.10
2023-02-14T03:01:11.338Z,16.30
2023-02-14T03:04:01.269Z,17.27
2023-02-14T03:06:30.733Z,17.10
2023-02-14T03:09:10.402Z,17.40
2023-02-14T03:11:49.101Z,16.20
2023-02-14T03:14:26.174Z,17.53
2023-02-14T03:17:05.209Z,16.87
2023-02-14T03:20:10.416Z,17.17
2023-02-14T03:22:51.398Z,17.27
2023-02-14T03:25:37.144Z,17.50
2023-02-14T03:28:16.993Z,17.13
2023-02-14T03:30:57.308Z,17.30
2023-02-14T03:33:32.998Z,18.70
2023-02-14T03:36:08.148Z,17.13
2023-02-14T03:38:43.822Z,17.63
2023-02-14T03:41:21.052Z,15.80
2023-02-14T03:43:53.754Z,16.40
2023-02-14T03:46:26.690Z,18.17
2023-02-14T03:48:58.084Z,16.63
2023-02-14T03:51:34.112Z,16.30
2023-02-14T03:54:04.674Z,17.07
2023-02-14T03:56:40.657Z,18.10
2023-02-14T03:59:15.496Z,18.30
2023-02-14T04:01:50.417Z,18.50
2023-02-14T04:04:22.497Z,17.60
2023-02-14T04:06:49.525Z,17.57
2023-02-14T04:09:16.495Z,18.63
2023-02-14T04:11:46.333Z,17.27
2023-02-14T04:14:13.371Z,18.30
2023-02-14T04:16:59.054Z,18.53
2023-02-14T04:19:26.110Z,17.50
2023-02-14T04:21:53.334Z,17.03
2023-02-14T04:24:20.711Z,17.17
2023-02-14T04:27:10.555Z,18.77
2023-02-14T04:29:39.777Z,19.20
2023-02-14T04:32:08.984Z,20.30
2023-02-14T04:34:36.889Z,18.67
2023-02-14T04:37:05.084Z,18.00
2023-02-14T04:39:32.367Z,19.33
2023-02-14T04:42:00.987Z,20.33
2023-02-14T04:44:28.026Z,19.43
2023-02-14T04:46:55.005Z,19.97
2023-02-14T04:49:22.159Z,21.40
2023-02-14T04:51:49.110Z,21.57
2023-02-14T04:54:16.022Z,20.67
2023-02-14T04:56:42.991Z,21.77
2023-02-14T04:59:11.367Z,22.67
2023-02-14T05:01:38.263Z,20.63
2023-02-14T05:04:05.640Z,20.00
2023-02-14T05:06:33.600Z,21.63
2023-02-14T05:09:01.014Z,19.57
2023-02-14T05:11:28.819Z,21.70
2023-02-14T05:13:55.850Z,19.97
2023-02-14T05:16:24.680Z,20.53
2023-02-14T05:18:51.705Z,18.90
2023-02-14T05:21:18.820Z,20.57
2023-02-14T05:23:45.797Z,20.10
2023-02-14T05:26:12.740Z,20.10
2023-02-14T05:28:40.966Z,21.77
2023-02-14T05:31:08.536Z,21.40
2023-02-14T05:33:36.913Z,19.73
2023-02-14T05:36:04.692Z,20.10
2023-02-14T05:38:33.399Z,21.27
2023-02-14T05:41:00.935Z,21.93
2023-02-14T05:43:28.241Z,20.83
2023-02-14T05:45:55.303Z,20.53
2023-02-14T05:48:22.716Z,21.10
2023-02-14T05:50:51.177Z,21.90
2023-02-14T05:53:18.149Z,21.53
2023-02-14T05:55:45.178Z,21.47
2023-02-14T05:58:12.492Z,19.20
2023-02-14T06:00:41.335Z,21.33
2023-02-14T06:03:08.725Z,20.97
2023-02-14T06:05:35.839Z,19.17
2023-02-14T06:08:04.233Z,22.83
2023-02-14T06:10:33.740Z,20.87
2023-02-14T06:13:01.010Z,22.17
2023-02-14T06:15:28.296Z,22.47
2023-02-14T06:17:57.500Z,21.37
2023-02-14T06:20:25.309Z,20.53
2023-02-14T06:22:52.874Z,22.73
2023-02-14T06:25:21.346Z,21.80
2023-02-14T06:27:49.440Z,21.43
2023-02-14T06:30:18.195Z,20.90
2023-02-14T06:32:45.331Z,22.33
2023-02-14T06:35:13.644Z,20.60
2023-02-14T06:37:42.111Z,21.60
2023-02-14T06:40:10.981Z,20.83
2023-02-14T06:42:39.922Z,20.97
2023-02-14T06:45:08.758Z,19.43
2023-02-14T06:47:35.745Z,20.37
2023-02-14T06:50:04.954Z,21.57
2023-02-14T06:52:32.045Z,19.43
2023-02-14T06:54:58.945Z,20.63
2023-02-14T06:57:26.758Z,20.73
2023-02-14T06:59:55.037Z,21.97
2023-02-14T07:02:24.748Z,19.87
2023-02-14T07:04:52.102Z,20.27
2023-02-14T07:07:19.174Z,21.27
2023-02-14T07:09:46.196Z,21.13
2023-02-14T07:12:14.695Z,21.13
2023-02-14T07:14:42.429Z,19.83
2023-02-14T07:17:11.484Z,20.30
2023-02-14T07:19:38.575Z,21.33
2023-02-14T07:22:05.866Z,20.50
2023-02-14T07:24:34.069Z,19.70
2023-02-14T07:27:01.041Z,20.30
2023-02-14T07:29:27.942Z,20.73
2023-02-14T07:31:55.201Z,19.73
2023-02-14T07:34:24.130Z,19.80
2023-02-14T07:36:51.081Z,19.87
2023-02-14T07:39:17.937Z,18.93
2023-02-14T07:41:44.856Z,18.93
2023-02-14T07:44:11.905Z,20.07
2023-02-14T07:46:39.938Z,19.37
2023-02-14T07:49:07.486Z,19.33
2023-02-14T07:51:35.774Z,19.33
2023-02-14T07:54:02.745Z,18.10
2023-02-14T07:56:29.722Z,18.23
2023-02-14T07:58:56.613Z,17.27
2023-02-14T08:01:23.720Z,17.63
2023-02-14T08:03:51.437Z,17.03
2023-02-14T08:06:19.742Z,17.13
2023-02-14T08:08:48.742Z,17.50
2023-02-14T08:11:35.958Z,15.57
2023-02-14T08:14:03.406Z,16.73
2023-02-14T08:16:32.352Z,16.43
2023-02-14T08:19:00.363Z,17.23
2023-02-14T08:21:29.762Z,17.50
2023-02-14T08:23:58.081Z,22.73
2023-02-14T08:26:25.425Z,15.97
2023-02-14T08:28:52.977Z,15.93
2023-02-14T08:31:34.350Z,15.60
2023-02-14T08:34:01.837Z,16.47
2023-02-14T08:36:29.487Z,15.10
2023-02-14T08:38:57.961Z,17.23
2023-02-14T08:41:25.439Z,15.27
2023-02-14T08:43:52.665Z,15.40
2023-02-14T08:46:19.644Z,14.73
2023-02-14T08:48:46.732Z,15.80
2023-02-14T08:51:14.925Z,16.23
2023-02-14T08:53:43.341Z,16.20
2023-02-14T08:56:14.291Z,16.30
2023-02-14T08:58:41.563Z,16.23
2023-02-14T09:01:09.717Z,15.90
2023-02-14T09:03:38.701Z,15.97
2023-02-14T09:06:08.639Z,15.00
2023-02-14T09:08:36.830Z,15.87
2023-02-14T09:11:08.150Z,16.23
2023-02-14T09:13:36.843Z,15.83
2023-02-14T09:16:04.833Z,16.43
2023-02-14T09:18:32.121Z,16.10
2023-02-14T09:20:59.550Z,16.10
2023-02-14T09:23:26.636Z,15.60
2023-02-14T09:26:01.181Z,14.60
2023-02-14T09:28:28.912Z,14.40
2023-02-14T09:30:57.831Z,15.03
2023-02-14T09:33:28.921Z,15.20
2023-02-14T09:36:18.852Z,15.20
2023-02-14T09:38:46.700Z,14.10
2023-02-14T09:42:04.086Z,15.43
2023-02-14T09:44:39.419Z,14.93
2023-02-14T09:47:20.428Z,15.17
2023-02-14T09:49:50.638Z,15.33
2023-02-14T09:52:22.637Z,14.30
2023-02-14T09:54:57.722Z,14.47
2023-02-14T09:57:41.744Z,15.27
2023-02-14T10:00:25.199Z,14.20
2023-02-14T10:03:33.412Z,14.70
2023-02-14T10:06:12.387Z,16.07
2023-02-14T10:09:00.802Z,15.00
2023-02-14T10:11:28.603Z,15.37
2023-02-14T10:14:04.160Z,15.40
2023-02-14T10:16:38.875Z,14.67
2023-02-14T10:19:19.646Z,13.93
2023-02-14T10:21:54.869Z,15.00
2023-02-14T10:24:28.153Z,14.40
2023-02-14T10:29:45.382Z,14.80
2023-02-14T10:32:23.342Z,13.47
2023-02-14T10:35:00.044Z,13.30
2023-02-14T10:37:50.693Z,14.13
2023-02-14T10:40:39.450Z,13.77
2023-02-14T10:43:19.525Z,14.17
2023-02-14T10:46:05.104Z,12.50
2023-02-14T10:48:47.359Z,16.03
2023-02-14T10:51:22.108Z,15.13
2023-02-14T10:54:02.985Z,15.10
2023-02-14T10:56:38.337Z,15.87
2023-02-14T10:59:21.955Z,19.57
2023-02-14T11:01:52.987Z,14.37
2023-02-14T11:04:23.163Z,15.77
2023-02-14T11:06:52.629Z,12.83
2023-02-14T11:09:20.338Z,16.37
2023-02-14T11:11:53.093Z,14.63
2023-02-14T11:14:24.654Z,14.07
2023-02-14T11:16:54.140Z,14.60
2023-02-14T11:19:25.987Z,19.00
2023-02-14T11:21:57.964Z,15.93
2023-02-14T11:24:31.350Z,16.17
2023-02-14T11:27:02.149Z,17.87
2023-02-14T11:29:36.477Z,18.83
2023-02-14T11:32:09.781Z,16.27
2023-02-14T11:34:41.312Z,15.13
2023-02-14T11:37:28.867Z,14.33
2023-02-14T11:39:59.402Z,13.70
2023-02-14T11:42:42.741Z,14.13
2023-02-14T11:45:29.336Z,12.90
2023-02-14T11:48:17.774Z,13.70
2023-02-14T11:50:56.473Z,14.43
2023-02-14T11:53:28.742Z,13.77
2023-02-14T11:55:59.008Z,13.37
2023-02-14T11:58:34.524Z,14.90
2023-02-14T12:01:02.992Z,14.03
2023-02-14T12:03:39.728Z,15.57
2023-02-14T12:06:06.883Z,18.93
2023-02-14T12:08:38.899Z,13.00
2023-02-14T12:11:21.339Z,11.90
2023-02-14T12:13:56.956Z,11.97
2023-02-14T12:16:35.167Z,14.57
2023-02-14T12:19:07.367Z,15.93
2023-02-14T12:21:48.270Z,13.23
2023-02-14T12:24:33.517Z,27.87
2023-02-14T12:27:20.088Z,14.93
2023-02-14T12:29:54.630Z,12.57
2023-02-14T12:32:25.668Z,11.73
2023-02-14T12:35:00.654Z,11.03
2023-02-14T12:37:40.537Z,15.20
2023-02-14T12:40:20.500Z,11.23
2023-02-14T12:43:18.437Z,11.57
2023-02-14T12:46:18.501Z,20.03
2023-02-14T12:49:13.287Z,12.87
2023-02-14T12:51:51.672Z,11.80
2023-02-14T12:54:44.291Z,10.47
2023-02-14T12:57:32.411Z,11.63
2023-02-14T13:00:17.343Z,12.17
2023-02-14T13:03:21.990Z,12.67
2023-02-14T13:06:00.348Z,10.43
2023-02-14T13:08:50.253Z,11.20
2023-02-14T13:11:33.524Z,9.13
2023-02-14T13:14:18.631Z,9.67
2023-02-14T13:16:54.509Z,10.13
2023-02-14T13:19:39.441Z,10.83
2023-02-14T13:22:13.292Z,10.23
2023-02-14T13:24:44.523Z,9.53
2023-02-14T13:27:21.940Z,9.37
2023-02-14T13:29:54.820Z,8.93
2023-02-14T13:32:27.450Z,8.03
2023-02-14T13:34:56.136Z,11.63
2023-02-14T13:37:27.353Z,8.90
2023-02-14T13:40:00.964Z,7.60
2023-02-14T13:42:53.305Z,9.63
2023-02-14T13:45:54.570Z,8.50
2023-02-14T13:48:26.017Z,9.23
2023-02-14T13:50:57.208Z,9.50
2023-02-14T13:53:37.328Z,9.77
2023-02-14T13:56:21.683Z,10.00
2023-02-14T13:58:52.902Z,10.57
2023-02-14T14:01:35.920Z,11.07
2023-02-14T14:04:26.294Z,10.47
2023-02-14T14:07:19.227Z,10.43
2023-02-14T14:09:58.852Z,13.07
2023-02-14T14:12:43.620Z,11.50
2023-02-14T14:15:20.666Z,10.03
2023-02-14T14:18:29.759Z,9.77
2023-02-14T14:20:57.648Z,10.50
2023-02-14T14:23:35.244Z,10.40
2023-02-14T14:26:03.587Z,10.17
2023-02-14T14:28:33.135Z,8.80
2023-02-14T14:31:00.284Z,10.57
2023-02-14T14:33:31.625Z,10.20
2023-02-14T14:36:02.850Z,10.77
2023-02-14T14:38:34.309Z,9.33
2023-02-14T14:41:02.495Z,9.53
2023-02-14T14:43:32.842Z,9.47
2023-02-14T14:46:03.347Z,8.73
2023-02-14T14:48:37.071Z,10.00
2023-02-14T14:51:07.285Z,8.87
2023-02-14T14:53:45.556Z,9.70
2023-02-14T14:56:14.069Z,9.27
2023-02-14T14:58:42.107Z,12.20
2023-02-14T15:01:21.148Z,10.10
2023-02-14T15:03:48.350Z,9.47
2023-02-14T15:06:20.055Z,9.60
2023-02-14T15:08:49.664Z,9.50
2023-02-14T15:11:40.986Z,8.73
2023-02-14T15:14:21.511Z,9.83
2023-02-14T15:16:53.742Z,9.07
2023-02-14T15:19:33.401Z,9.43
2023-02-14T15:22:02.461Z,10.20
2023-02-14T15:24:34.998Z,10.73
2023-02-14T15:27:02.950Z,10.53
2023-02-14T15:29:33.005Z,10.33
2023-02-14T15:32:03.368Z,11.10
2023-02-14T15:34:36.064Z,10.80
2023-02-14T15:37:06.876Z,9.77
2023-02-14T15:39:41.698Z,10.40
2023-02-14T15:42:22.776Z,10.47
2023-02-14T15:44:49.736Z,11.13
2023-02-14T15:47:16.918Z,11.27
2023-02-14T15:49:46.514Z,10.47
2023-02-14T15:52:16.090Z,10.63
2023-02-14T15:54:47.382Z,10.40
2023-02-14T15:57:25.345Z,10.97
2023-02-14T15:59:53.590Z,10.37
2023-02-14T16:02:32.862Z,10.63
2023-02-14T16:05:07.742Z,10.77
2023-02-14T16:07:34.851Z,10.23
2023-02-14T16:10:24.465Z,8.90
2023-02-14T16:13:01.540Z,9.27
2023-02-14T16:15:31.886Z,9.10
2023-02-14T16:17:59.663Z,9.33
2023-02-14T16:20:39.656Z,10.57
2023-02-14T16:23:31.387Z,14.30
2023-02-14T16:25:59.841Z,10.37
2023-02-14T16:28:30.249Z,10.10
2023-02-14T16:31:00.619Z,10.07
2023-02-14T16:33:32.159Z,9.73
2023-02-14T16:36:06.716Z,10.67
2023-02-14T16:38:44.050Z,9.83
2023-02-14T16:41:23.076Z,10.80
2023-02-14T16:43:51.065Z,12.60
2023-02-14T16:46:21.942Z,10.37
2023-02-14T16:48:52.135Z,9.57
2023-02-14T16:51:21.521Z,10.67
2023-02-14T16:53:50.400Z,9.60
2023-02-14T16:56:25.904Z,9.57
2023-02-14T16:58:53.132Z,10.33
2023-02-14T17:01:20.304Z,10.80
2023-02-14T17:03:47.286Z,10.37
2023-02-14T17:06:20.143Z,10.73
2023-02-14T17:08:50.745Z,11.00
2023-02-14T17:11:20.306Z,12.33
2023-02-14T17:13:49.002Z,11.87
2023-02-14T17:16:17.169Z,11.53
2023-02-14T17:18:48.681Z,11.93
2023-02-14T17:21:19.773Z,12.43
2023-02-14T17:23:46.753Z,11.77
2023-02-14T17:26:14.256Z,11.33
2023-02-14T17:28:42.538Z,12.97
2023-02-14T17:31:09.875Z,14.33
2023-02-14T17:33:37.023Z,13.37
2023-02-14T17:36:06.576Z,23.90
2023-02-14T17:38:34.718Z,19.93
2023-02-14T17:41:12.141Z,17.73
2023-02-14T17:43:39.212Z,14.20
2023-02-14T17:46:07.777Z,13.93
2023-02-14T17:48:34.811Z,14.27
2023-02-14T17:51:04.985Z,14.37
2023-02-14T17:53:33.815Z,13.17
2023-02-14T17:56:06.273Z,14.37
2023-02-14T17:58:33.320Z,12.60
2023-02-14T18:01:04.631Z,13.57
2023-02-14T18:03:34.119Z,15.23
2023-02-14T18:06:02.335Z,14.60
2023-02-14T18:08:31.908Z,14.80
2023-02-14T18:10:59.463Z,13.60
2023-02-14T18:13:29.008Z,14.13
2023-02-14T18:16:02.529Z,13.90
2023-02-14T18:18:29.682Z,14.70
2023-02-14T18:21:00.964Z,15.13
2023-02-14T18:23:30.648Z,13.93
2023-02-14T18:26:01.311Z,15.20
2023-02-14T18:28:28.628Z,15.23
2023-02-14T18:30:57.853Z,13.77
2023-02-14T18:33:25.722Z,14.83
2023-02-14T18:35:52.676Z,16.67
2023-02-14T18:38:20.934Z,16.10
2023-02-14T18:40:47.899Z,17.53
2023-02-14T18:43:14.812Z,16.30
2023-02-14T18:45:41.751Z,16.00
2023-02-14T18:48:09.009Z,16.83
2023-02-14T18:50:36.240Z,16.30
2023-02-14T18:53:03.257Z,16.33
2023-02-14T18:55:31.599Z,14.57
2023-02-14T18:57:58.502Z,15.97
2023-02-14T19:00:27.014Z,15.57
2023-02-14T19:02:53.972Z,17.17
2023-02-14T19:05:20.953Z,15.77
2023-02-14T19:07:47.853Z,14.60
2023-02-14T19:10:14.794Z,14.27
2023-02-14T19:12:43.113Z,14.57
2023-02-14T19:15:10.160Z,13.17
2023-02-14T19:17:38.105Z,14.27
2023-02-14T19:20:09.422Z,13.13
2023-02-14T19:22:41.091Z,13.57
2023-02-14T19:25:08.908Z,13.90
2023-02-14T19:27:36.912Z,13.53
2023-02-14T19:30:07.083Z,12.57
2023-02-14T19:32:33.994Z,13.70
2023-02-14T19:35:01.251Z,14.17
2023-02-14T19:37:28.124Z,14.40
2023-02-14T19:39:55.027Z,14.00
2023-02-14T19:42:21.894Z,14.03
2023-02-14T19:44:48.821Z,14.57
2023-02-14T19:47:30.991Z,13.57
2023-02-14T19:50:00.782Z,13.93
2023-02-14T19:52:28.121Z,13.87
2023-02-14T19:54:58.028Z,14.97
2023-02-14T19:57:25.224Z,15.33
2023-02-14T19:59:52.176Z,15.57
2023-02-14T20:02:21.802Z,15.17
2023-02-14T20:04:48.955Z,15.50
2023-02-14T20:07:17.308Z,14.57
2023-02-14T20:09:44.380Z,13.60
2023-02-14T20:12:11.471Z,13.77
2023-02-14T20:14:50.226Z,14.67
2023-02-14T20:17:18.609Z,13.57
2023-02-14T20:19:47.037Z,14.80
2023-02-14T20:22:14.074Z,14.50
2023-02-14T20:24:40.973Z,13.67
2023-02-14T20:27:08.010Z,14.30
2023-02-14T20:29:35.059Z,13.73
2023-02-14T20:32:04.758Z,15.80
2023-02-14T20:34:31.791Z,14.63
2023-02-14T20:37:00.258Z,14.37
2023-02-14T20:39:30.675Z,13.10
2023-02-14T20:41:58.429Z,14.87
2023-02-14T20:44:26.220Z,15.27
2023-02-14T20:46:55.690Z,13.73
2023-02-14T20:49:25.554Z,13.57
2023-02-14T20:51:53.155Z,13.57
2023-02-14T20:54:25.316Z,13.67
2023-02-14T20:56:53.327Z,13.43
2023-02-14T20:59:26.918Z,13.60
2023-02-14T21:01:54.904Z,13.23
2023-02-14T21:04:22.317Z,13.43
2023-02-14T21:06:49.302Z,14.03
2023-02-14T21:09:18.448Z,13.60
2023-02-14T21:11:46.728Z,13.87
2023-02-14T21:14:13.698Z,14.80
2023-02-14T21:16:40.617Z,13.37
2023-02-14T21:19:07.595Z,13.60
2023-02-14T21:21:37.133Z,15.53
2023-02-14T21:24:07.749Z,14.57
2023-02-14T21:26:35.182Z,13.50
2023-02-14T21:29:04.256Z,15.70
2023-02-14T21:31:31.841Z,14.27
2023-02-14T21:34:01.497Z,14.40
2023-02-14T21:36:31.485Z,14.67
2023-02-14T21:38:59.922Z,14.00
2023-02-14T21:41:30.145Z,15.37
2023-02-14T21:43:59.126Z,13.87
2023-02-14T21:46:31.048Z,13.87
2023-02-14T21:49:18.673Z,15.10
2023-02-14T21:51:46.892Z,13.70
2023-02-14T21:54:14.805Z,15.43
2023-02-14T21:56:42.434Z,14.33
2023-02-14T21:59:09.693Z,13.47
2023-02-14T22:01:41.909Z,14.33
2023-02-14T22:04:11.543Z,13.77
2023-02-14T22:06:41.465Z,15.07
2023-02-14T22:09:10.960Z,14.50
2023-02-14T22:11:38.168Z,13.70
2023-02-14T22:14:05.255Z,14.00
2023-02-14T22:16:32.658Z,15.90
2023-02-14T22:19:00.858Z,14.83
2023-02-14T22:21:30.101Z,13.83
2023-02-14T22:23:56.957Z,14.33
2023-02-14T22:26:26.533Z,14.30
2023-02-14T22:28:56.988Z,14.70
2023-02-14T22:31:26.589Z,13.70
2023-02-14T22:33:54.048Z,13.63
2023-02-14T22:36:22.448Z,13.53
2023-02-14T22:38:49.577Z,14.97
2023-02-14T22:41:19.064Z,15.53
2023-02-14T22:43:46.592Z,13.63
2023-02-14T22:46:17.377Z,14.77
2023-02-14T22:48:46.269Z,14.97
2023-02-14T22:51:20.779Z,13.67
2023-02-14T22:53:50.644Z,15.27
2023-02-14T22:56:20.219Z,13.73
2023-02-14T22:58:47.571Z,15.80
2023-02-14T23:01:16.863Z,14.27
2023-02-14T23:03:45.530Z,14.87
2023-02-14T23:06:14.732Z,14.60
2023-02-14T23:08:44.054Z,14.17
2023-02-14T23:11:15.884Z,15.07
2023-02-14T23:14:01.845Z,14.87
2023-02-14T23:16:47.549Z,14.83
2023-02-14T23:19:36.201Z,15.27
2023-02-14T23:22:09.925Z,14.50
2023-02-14T23:24:37.227Z,13.90
2023-02-14T23:27:06.336Z,15.40
2023-02-14T23:29:33.788Z,15.37
2023-02-14T23:32:00.731Z,15.50
2023-02-14T23:34:30.620Z,14.73
2023-02-14T23:36:58.021Z,16.60
2023-02-14T23:39:25.654Z,16.57
2023-02-14T23:41:53.224Z,13.87
2023-02-14T23:44:24.620Z,16.17
2023-02-14T23:46:55.244Z,15.37
2023-02-14T23:49:23.920Z,16.60
2023-02-14T23:51:52.979Z,16.40
2023-02-14T23:54:22.170Z,15.93
2023-02-14T23:56:50.036Z,15.30
2023-02-14T23:59:17.022Z,17.13
